Time;durP1;ratioP1;P1;durP2;ratioP2;P2;SDS_P1;SDS_P2;PMS_P1;PMS_P2;Temp;Humidity;BMP_temperature;BMP_pressure;BME280_temperature;BME280_humidity;BME280_pressure;Samples;Min_cycle;Max_cycle;Signal;HPM_P1;HPM_P2
2021/09/01 00:01:44;;;;;;;11.60;3.65;;;17.10;99.90;;;;;;4105736;28;20039;-71
2021/09/01 00:03:45;;;;;;;9.88;4.07;;;17.10;99.90;;;;;;4108873;28;20037;-71
2021/09/01 00:05:45;;;;;;;13.35;4.65;;;17.10;99.90;;;;;;4108828;28;20053;-71
2021/09/01 00:07:47;;;;;;;10.90;3.65;;;17.00;99.90;;;;;;4106721;28;20031;-71
2021/09/01 00:09:48;;;;;;;10.63;4.10;;;17.00;99.90;;;;;;4103710;28;20100;-71
2021/09/01 00:11:48;;;;;;;11.20;4.28;;;17.00;99.90;;;;;;4108198;28;20362;-71
2021/09/01 00:13:49;;;;;;;11.25;3.75;;;17.00;99.90;;;;;;4106772;28;20046;-71
2021/09/01 00:15:50;;;;;;;6.72;3.38;;;17.00;99.90;;;;;;4108948;28;20039;-71
2021/09/01 00:17:50;;;;;;;9.18;3.85;;;17.10;99.90;;;;;;4091280;28;20073;-71
2021/09/01 00:19:51;;;;;;;7.30;2.90;;;17.10;99.90;;;;;;4108260;28;20042;-71
2021/09/01 00:21:52;;;;;;;6.97;3.03;;;17.10;99.90;;;;;;4107583;28;20093;-71
2021/09/01 00:23:53;;;;;;;7.90;3.17;;;17.20;99.90;;;;;;4108210;28;20122;-71
2021/09/01 00:25:54;;;;;;;10.80;3.10;;;17.20;99.90;;;;;;4091802;29;20450;-71
2021/09/01 00:27:54;;;;;;;7.30;3.35;;;17.30;99.90;;;;;;4091072;29;20099;-71
2021/09/01 00:29:55;;;;;;;7.88;3.10;;;17.30;99.90;;;;;;4107915;28;20141;-71
2021/09/01 00:31:55;;;;;;;7.45;3.10;;;17.30;99.90;;;;;;4104034;28;20063;-71
2021/09/01 00:33:56;;;;;;;8.35;3.47;;;17.30;99.90;;;;;;4108257;28;20129;-71
2021/09/01 00:35:57;;;;;;;13.27;4.25;;;17.30;99.90;;;;;;4090745;28;20053;-71
2021/09/01 00:37:57;;;;;;;11.07;3.42;;;17.30;99.90;;;;;;4107428;28;20115;-71
2021/09/01 00:39:58;;;;;;;7.85;3.22;;;17.30;99.90;;;;;;4107992;28;20093;-71
2021/09/01 00:42:03;;;;;;;6.60;2.92;;;17.30;99.90;;;;;;4108371;28;20042;-71
2021/09/01 00:44:20;;;;;;;8.75;3.55;;;17.40;99.90;;;;;;4107641;28;20047;-71
2021/09/01 00:46:23;;;;;;;6.60;2.97;;;17.40;99.90;;;;;;4104027;28;20043;-71
2021/09/01 00:48:24;;;;;;;8.35;3.40;;;17.40;99.90;;;;;;4088820;29;20043;-71
2021/09/01 00:50:25;;;;;;;9.27;3.58;;;17.40;99.90;;;;;;4106698;28;20069;-71
2021/09/01 00:52:27;;;;;;;6.90;3.10;;;17.40;99.90;;;;;;4108100;28;20038;-71
2021/09/01 00:54:29;;;;;;;7.28;2.80;;;17.40;99.90;;;;;;4107906;28;20146;-71
2021/09/01 00:56:30;;;;;;;7.22;3.42;;;17.50;99.90;;;;;;4108090;28;20058;-71
2021/09/01 00:58:36;;;;;;;6.68;3.10;;;17.40;99.90;;;;;;4107251;28;20038;-71
2021/09/01 01:00:58;;;;;;;6.97;3.05;;;17.40;99.90;;;;;;4088860;29;20051;-71
2021/09/01 01:02:59;;;;;;;8.05;3.25;;;17.40;99.90;;;;;;4091409;28;20144;-71
2021/09/01 01:04:59;;;;;;;9.80;3.67;;;17.40;99.90;;;;;;4107763;28;20119;-71
2021/09/01 01:07:10;;;;;;;10.15;4.00;;;17.40;99.90;;;;;;4090480;29;20506;-71
2021/09/01 01:09:11;;;;;;;11.10;3.53;;;17.30;99.90;;;;;;4107160;28;20144;-71
2021/09/01 01:11:13;;;;;;;8.82;3.40;;;17.40;99.90;;;;;;4105610;28;20133;-71
2021/09/01 01:13:16;;;;;;;11.50;3.30;;;17.30;99.90;;;;;;4089355;29;20067;-71
2021/09/01 01:15:17;;;;;;;9.10;3.40;;;17.30;99.90;;;;;;4086663;29;20058;-71
2021/09/01 01:17:19;;;;;;;6.50;3.17;;;17.30;99.90;;;;;;4107186;28;20195;-71
2021/09/01 01:19:20;;;;;;;7.75;2.88;;;17.30;99.90;;;;;;4090280;29;20047;-71
2021/09/01 01:21:23;;;;;;;6.55;2.65;;;17.40;99.90;;;;;;4105864;28;20515;-71
2021/09/01 01:23:24;;;;;;;11.38;3.65;;;17.40;99.90;;;;;;4107209;28;20046;-71
2021/09/01 01:25:38;;;;;;;8.95;2.80;;;17.30;99.90;;;;;;4092035;28;20043;-71
2021/09/01 01:27:43;;;;;;;8.13;3.00;;;17.30;99.90;;;;;;4105987;28;20155;-71
2021/09/01 01:29:44;;;;;;;8.63;3.33;;;17.30;99.90;;;;;;4104007;28;20042;-71
2021/09/01 01:31:45;;;;;;;9.68;3.92;;;17.20;99.90;;;;;;4107640;28;20047;-71
2021/09/01 01:33:45;;;;;;;7.18;3.22;;;17.30;99.90;;;;;;4105924;28;20049;-72
2021/09/01 01:35:47;;;;;;;11.88;3.92;;;17.20;99.90;;;;;;4089730;29;20110;-71
2021/09/01 01:37:48;;;;;;;8.60;3.00;;;17.20;99.90;;;;;;4107111;28;20419;-71
2021/09/01 01:39:48;;;;;;;7.50;2.90;;;17.30;99.90;;;;;;4105450;28;20078;-71
2021/09/01 01:41:49;;;;;;;6.93;3.03;;;17.30;99.90;;;;;;4105783;28;20400;-71
2021/09/01 01:43:50;;;;;;;8.07;3.10;;;17.30;99.90;;;;;;4107469;28;20611;-71
2021/09/01 01:45:50;;;;;;;6.10;2.97;;;17.30;99.90;;;;;;4106557;28;20043;-71
2021/09/01 01:47:51;;;;;;;7.85;3.35;;;17.30;99.90;;;;;;4106838;28;20070;-71
2021/09/01 01:49:52;;;;;;;6.38;2.90;;;17.30;99.90;;;;;;4104625;28;20046;-71
2021/09/01 01:51:52;;;;;;;9.95;3.35;;;17.30;99.90;;;;;;4089110;28;20482;-71
2021/09/01 01:53:53;;;;;;;7.72;3.35;;;17.30;99.90;;;;;;4105815;28;20034;-71
2021/09/01 01:55:53;;;;;;;5.85;3.28;;;17.30;99.90;;;;;;4090288;29;20048;-71
2021/09/01 01:57:55;;;;;;;11.02;3.92;;;17.30;99.90;;;;;;4090065;29;20109;-71
2021/09/01 01:59:55;;;;;;;7.03;3.17;;;17.30;99.90;;;;;;4106900;28;20113;-71
2021/09/01 02:01:56;;;;;;;6.43;3.28;;;17.30;99.90;;;;;;4105657;28;20039;-71
2021/09/01 02:03:56;;;;;;;7.20;3.10;;;17.30;99.90;;;;;;4105641;28;20038;-72
2021/09/01 02:05:57;;;;;;;9.25;2.78;;;17.40;99.90;;;;;;4090102;28;20043;-71
2021/09/01 02:07:58;;;;;;;10.88;3.45;;;17.40;99.90;;;;;;4089059;28;20038;-71
2021/09/01 02:09:59;;;;;;;9.20;3.42;;;17.40;99.90;;;;;;4106565;28;20133;-71
2021/09/01 02:11:59;;;;;;;7.22;3.15;;;17.40;99.90;;;;;;4106212;28;20502;-71
2021/09/01 02:14:00;;;;;;;7.50;3.22;;;17.40;99.90;;;;;;4104910;28;20035;-71
2021/09/01 02:16:01;;;;;;;9.02;3.65;;;17.40;99.90;;;;;;4102166;28;20035;-71
2021/09/01 02:18:01;;;;;;;5.75;3.08;;;17.40;99.90;;;;;;4106997;28;20047;-71
2021/09/01 02:20:03;;;;;;;6.93;2.70;;;17.40;99.90;;;;;;4107125;28;20042;-71
2021/09/01 02:22:04;;;;;;;4.60;2.50;;;17.40;99.90;;;;;;4073783;29;20028;-71
2021/09/01 02:24:06;;;;;;;6.68;2.72;;;17.50;99.90;;;;;;4106805;28;20841;-71
2021/09/01 02:26:06;;;;;;;7.80;2.90;;;17.50;99.90;;;;;;4107515;28;20041;-71
2021/09/01 02:28:07;;;;;;;6.18;2.78;;;17.50;99.90;;;;;;4105802;28;20070;-71
2021/09/01 02:30:09;;;;;;;7.05;3.05;;;17.50;99.90;;;;;;4106289;28;20035;-71
2021/09/01 02:32:10;;;;;;;5.72;2.97;;;17.60;99.90;;;;;;4087016;29;20399;-71
2021/09/01 02:34:11;;;;;;;7.68;3.03;;;17.60;99.90;;;;;;4106861;28;20047;-71
2021/09/01 02:36:12;;;;;;;6.80;3.05;;;17.60;99.90;;;;;;4088397;29;20079;-71
2021/09/01 02:38:12;;;;;;;5.80;2.83;;;17.60;99.90;;;;;;4106306;28;20035;-71
2021/09/01 02:40:13;;;;;;;8.60;3.33;;;17.60;99.90;;;;;;4104208;28;20031;-72
2021/09/01 02:42:14;;;;;;;4.80;2.67;;;17.70;99.90;;;;;;4106791;28;20051;-71
2021/09/01 02:44:14;;;;;;;5.70;2.90;;;17.70;99.90;;;;;;4106761;28;20509;-71
2021/09/01 02:46:15;;;;;;;5.57;2.50;;;17.70;99.90;;;;;;4089039;29;20059;-71
2021/09/01 02:48:16;;;;;;;5.05;2.67;;;17.70;99.90;;;;;;4106856;28;20045;-71
2021/09/01 02:50:16;;;;;;;9.02;3.33;;;17.70;99.90;;;;;;4090586;28;20572;-71
2021/09/01 02:52:17;;;;;;;5.70;2.80;;;17.70;99.90;;;;;;4102962;28;20067;-71
2021/09/01 02:54:17;;;;;;;7.22;2.85;;;17.80;99.90;;;;;;4104404;28;20078;-71
2021/09/01 02:56:18;;;;;;;9.20;3.40;;;17.80;99.90;;;;;;4106379;28;20042;-71
2021/09/01 02:58:18;;;;;;;6.75;3.03;;;17.80;99.90;;;;;;4088808;29;20050;-71
2021/09/01 03:00:19;;;;;;;5.22;2.50;;;17.80;99.90;;;;;;4090084;28;20050;-71
2021/09/01 03:02:20;;;;;;;7.15;3.00;;;17.80;99.90;;;;;;4092623;29;20035;-70
2021/09/01 03:04:20;;;;;;;6.63;2.85;;;17.80;99.90;;;;;;4106775;28;20483;-71
2021/09/01 03:06:21;;;;;;;5.95;2.70;;;17.80;99.90;;;;;;4109756;28;20047;-71
2021/09/01 03:08:21;;;;;;;6.45;3.22;;;17.80;99.90;;;;;;4109209;28;20038;-71
2021/09/01 03:10:22;;;;;;;5.55;2.78;;;17.80;99.90;;;;;;4109696;28;20042;-71
2021/09/01 03:12:23;;;;;;;5.57;2.95;;;17.80;99.90;;;;;;4110056;28;20029;-71
2021/09/01 03:14:24;;;;;;;5.43;2.78;;;17.80;99.90;;;;;;4107486;28;20046;-71
2021/09/01 03:16:24;;;;;;;5.15;2.63;;;17.80;99.90;;;;;;4109569;28;20473;-71
2021/09/01 03:18:25;;;;;;;7.15;2.85;;;17.80;99.90;;;;;;4106408;28;20038;-71
2021/09/01 03:20:26;;;;;;;11.65;3.25;;;17.80;99.90;;;;;;4108337;28;20039;-71
2021/09/01 03:22:27;;;;;;;8.50;3.28;;;17.80;99.90;;;;;;4109412;28;20065;-71
2021/09/01 03:24:27;;;;;;;5.97;3.22;;;17.80;99.90;;;;;;4109384;28;20047;-71
2021/09/01 03:26:31;;;;;;;9.02;3.30;;;17.80;99.90;;;;;;4105561;28;20539;-71
2021/09/01 03:28:32;;;;;;;7.00;3.00;;;17.80;99.90;;;;;;4109197;28;20045;-71
2021/09/01 03:30:32;;;;;;;4.78;2.80;;;17.80;99.90;;;;;;4105540;28;20038;-72
2021/09/01 03:32:33;;;;;;;5.07;2.58;;;17.80;99.90;;;;;;4106749;28;20133;-71
2021/09/01 03:34:34;;;;;;;5.95;3.03;;;17.80;99.90;;;;;;4091895;29;20111;-71
2021/09/01 03:36:34;;;;;;;6.32;2.88;;;17.80;99.90;;;;;;4109768;28;20406;-71
2021/09/01 03:38:35;;;;;;;6.18;2.80;;;17.80;99.90;;;;;;4108836;28;20067;-71
2021/09/01 03:40:35;;;;;;;6.88;3.00;;;17.80;99.90;;;;;;4109141;28;20092;-71
2021/09/01 03:42:36;;;;;;;4.85;2.60;;;17.80;99.90;;;;;;4106027;28;20051;-71
2021/09/01 03:44:37;;;;;;;8.75;2.92;;;17.80;99.90;;;;;;4089322;28;20043;-71
2021/09/01 03:46:37;;;;;;;5.40;2.95;;;17.80;99.90;;;;;;4109546;28;20070;-71
2021/09/01 03:48:38;;;;;;;7.28;2.80;;;17.80;99.90;;;;;;4091850;28;20047;-71
2021/09/01 03:50:39;;;;;;;4.55;2.78;;;17.80;99.90;;;;;;4108694;28;20526;-71
2021/09/01 03:52:40;;;;;;;5.00;2.70;;;17.80;99.90;;;;;;4108476;28;20035;-71
2021/09/01 03:54:40;;;;;;;9.48;3.05;;;17.80;99.90;;;;;;4090609;29;20046;-71
2021/09/01 03:56:41;;;;;;;5.60;2.50;;;17.80;99.90;;;;;;4107596;28;20047;-71
2021/09/01 03:58:41;;;;;;;8.15;3.08;;;17.80;99.90;;;;;;4092084;29;20054;-71
2021/09/01 04:00:43;;;;;;;9.75;3.17;;;17.80;99.90;;;;;;4107043;28;20505;-71
2021/09/01 04:02:43;;;;;;;9.60;2.88;;;17.80;99.90;;;;;;4107767;28;20046;-71
2021/09/01 04:04:44;;;;;;;7.45;2.95;;;17.80;99.90;;;;;;4108811;28;20031;-71
2021/09/01 04:06:45;;;;;;;6.28;2.97;;;17.80;99.90;;;;;;4107577;28;20627;-71
2021/09/01 04:08:45;;;;;;;6.15;2.88;;;17.80;99.90;;;;;;4106374;28;20130;-71
2021/09/01 04:10:46;;;;;;;8.10;3.05;;;17.80;99.90;;;;;;4090965;28;20118;-71
2021/09/01 04:12:47;;;;;;;6.35;2.97;;;17.80;99.90;;;;;;4106453;28;20495;-71
2021/09/01 04:14:47;;;;;;;5.38;2.72;;;17.80;99.90;;;;;;4108592;28;20047;-71
2021/09/01 04:16:48;;;;;;;11.20;2.65;;;17.80;99.90;;;;;;4108911;28;20117;-71
2021/09/01 04:18:49;;;;;;;7.55;3.20;;;17.80;99.90;;;;;;4109024;28;20581;-71
2021/09/01 04:20:49;;;;;;;7.38;2.90;;;17.80;99.90;;;;;;4106750;28;20383;-71
2021/09/01 04:22:50;;;;;;;6.70;3.13;;;17.80;99.90;;;;;;4104017;28;20036;-71
2021/09/01 04:24:51;;;;;;;7.32;3.08;;;17.70;99.90;;;;;;4108582;28;20043;-71
2021/09/01 04:26:51;;;;;;;6.10;2.88;;;17.70;99.90;;;;;;4108361;28;20039;-71
2021/09/01 04:28:52;;;;;;;6.78;3.10;;;17.70;99.90;;;;;;4091503;29;20419;-71
2021/09/01 04:30:53;;;;;;;5.95;2.90;;;17.70;99.90;;;;;;4108086;28;20427;-71
2021/09/01 04:32:53;;;;;;;8.10;2.92;;;17.70;99.90;;;;;;4108743;28;20050;-71
2021/09/01 04:34:54;;;;;;;7.82;3.03;;;17.70;99.90;;;;;;4106127;28;20035;-71
2021/09/01 04:36:54;;;;;;;7.32;3.05;;;17.70;99.90;;;;;;4090703;29;20132;-71
2021/09/01 04:38:55;;;;;;;10.13;3.40;;;17.70;99.90;;;;;;4090975;29;20059;-71
2021/09/01 04:40:55;;;;;;;7.68;3.25;;;17.70;99.90;;;;;;4107172;28;20618;-71
2021/09/01 04:42:56;;;;;;;7.32;3.15;;;17.70;99.90;;;;;;4108241;28;20045;-71
2021/09/01 04:44:57;;;;;;;5.95;2.92;;;17.60;99.90;;;;;;4108257;28;20113;-71
2021/09/01 04:46:57;;;;;;;5.45;2.75;;;17.60;99.90;;;;;;4105459;28;20042;-71
2021/09/01 04:48:58;;;;;;;6.13;3.13;;;17.60;99.90;;;;;;4105717;28;20057;-71
2021/09/01 04:50:58;;;;;;;8.93;3.38;;;17.60;99.90;;;;;;4103728;28;20118;-71
2021/09/01 04:52:59;;;;;;;7.60;3.50;;;17.70;99.90;;;;;;4106953;28;20046;-71
2021/09/01 04:55:00;;;;;;;8.38;3.40;;;17.70;99.90;;;;;;4091534;28;20126;-71
2021/09/01 04:57:01;;;;;;;13.50;3.70;;;17.60;99.90;;;;;;4107523;28;20046;-71
2021/09/01 04:59:02;;;;;;;9.48;3.50;;;17.60;99.90;;;;;;4107228;28;20054;-72
2021/09/01 05:01:02;;;;;;;10.00;3.33;;;17.60;99.90;;;;;;4106363;28;20043;-72
2021/09/01 05:03:03;;;;;;;11.32;3.85;;;17.50;99.90;;;;;;4107169;28;20042;-72
2021/09/01 05:05:04;;;;;;;7.93;3.53;;;17.40;99.90;;;;;;4107785;28;20113;-72
2021/09/01 05:07:05;;;;;;;7.47;3.45;;;17.40;99.90;;;;;;4090718;29;20051;-72
2021/09/01 05:09:05;;;;;;;12.65;4.28;;;17.40;99.90;;;;;;4106708;28;20039;-72
2021/09/01 05:11:06;;;;;;;11.82;4.00;;;17.40;99.90;;;;;;4105414;28;20038;-73
2021/09/01 05:13:08;;;;;;;9.93;3.97;;;17.40;99.90;;;;;;4106737;28;20097;-72
2021/09/01 05:15:09;;;;;;;10.25;3.92;;;17.30;99.90;;;;;;4107289;28;20050;-72
2021/09/01 05:17:09;;;;;;;11.95;3.80;;;17.30;99.90;;;;;;4106429;28;20034;-72
2021/09/01 05:19:11;;;;;;;7.85;3.88;;;17.30;99.90;;;;;;4090517;28;20039;-72
2021/09/01 05:21:13;;;;;;;10.52;4.30;;;17.30;99.90;;;;;;4105231;28;20070;-72
2021/09/01 05:23:16;;;;;;;11.60;4.15;;;17.30;99.90;;;;;;4093786;28;20039;-72
2021/09/01 05:25:18;;;;;;;14.60;4.50;;;17.20;99.90;;;;;;4070798;29;20055;-72
2021/09/01 05:27:21;;;;;;;8.73;3.67;;;17.20;99.90;;;;;;4089522;28;20039;-72
2021/09/01 05:29:27;;;;;;;11.43;3.88;;;17.20;99.90;;;;;;4101300;28;20046;-72
2021/09/01 05:31:31;;;;;;;13.55;4.35;;;17.20;99.90;;;;;;4107789;28;20375;-72
2021/09/01 05:33:36;;;;;;;7.85;3.40;;;17.20;99.90;;;;;;4105474;28;20237;-72
2021/09/01 05:35:38;;;;;;;7.93;3.40;;;17.20;99.90;;;;;;4088002;28;20527;-72
2021/09/01 05:37:39;;;;;;;15.20;3.90;;;17.20;99.90;;;;;;4111031;28;20042;-69
2021/09/01 05:39:45;;;;;;;9.60;3.97;;;17.20;99.90;;;;;;4108028;28;20503;-71
2021/09/01 05:41:46;;;;;;;8.63;4.05;;;17.30;99.90;;;;;;4105095;28;20047;-71
2021/09/01 05:43:50;;;;;;;12.48;3.67;;;17.20;99.90;;;;;;4089436;28;20114;-71
2021/09/01 05:45:51;;;;;;;10.30;3.67;;;17.30;99.90;;;;;;4110096;28;20054;-71
2021/09/01 05:47:56;;;;;;;8.13;3.63;;;17.20;99.90;;;;;;4106433;28;21364;-71
2021/09/01 05:49:58;;;;;;;7.65;3.72;;;17.30;99.90;;;;;;4107296;28;20053;-71
2021/09/01 05:51:59;;;;;;;7.37;3.43;;;17.30;99.90;;;;;;4085439;28;20058;-71
2021/09/01 05:54:00;;;;;;;10.77;4.35;;;17.30;99.90;;;;;;4103691;28;20489;-71
2021/09/01 05:56:05;;;;;;;11.77;4.50;;;17.30;99.90;;;;;;4088404;28;20050;-71
2021/09/01 05:58:08;;;;;;;11.65;4.25;;;17.30;99.90;;;;;;4105639;28;20494;-71
2021/09/01 06:00:16;;;;;;;15.68;4.53;;;17.30;99.90;;;;;;4105178;28;20386;-71
2021/09/01 06:02:41;;;;;;;10.52;4.13;;;17.20;99.90;;;;;;4086959;28;20420;-71
2021/09/01 06:04:45;;;;;;;13.43;4.82;;;17.20;99.90;;;;;;4087317;28;20059;-71
2021/09/01 06:06:49;;;;;;;9.52;3.83;;;17.20;99.90;;;;;;4105455;28;20038;-71
2021/09/01 06:08:50;;;;;;;8.82;3.85;;;17.20;99.90;;;;;;4108381;28;20514;-71
2021/09/01 06:10:54;;;;;;;10.10;4.70;;;17.20;99.90;;;;;;4070148;29;20046;-71
2021/09/01 06:13:06;;;;;;;9.23;4.13;;;17.20;99.90;;;;;;4085934;28;20049;-71
2021/09/01 06:15:07;;;;;;;12.18;4.25;;;17.20;99.90;;;;;;4104102;28;20047;-71
2021/09/01 06:17:08;;;;;;;12.38;4.80;;;17.20;99.90;;;;;;4103408;28;20043;-71
2021/09/01 06:19:09;;;;;;;12.25;4.35;;;17.20;99.90;;;;;;4103393;28;20042;-71
2021/09/01 06:21:09;;;;;;;11.43;3.85;;;17.10;99.90;;;;;;4101829;28;20491;-71
2021/09/01 06:23:10;;;;;;;9.80;4.13;;;17.10;99.90;;;;;;4105859;28;20093;-68
2021/09/01 06:25:11;;;;;;;8.20;3.88;;;17.10;99.90;;;;;;4101369;28;20035;-68
2021/09/01 06:27:12;;;;;;;14.40;4.43;;;17.10;99.90;;;;;;4107719;28;20117;-68
2021/09/01 06:29:12;;;;;;;11.73;4.13;;;17.10;99.90;;;;;;4085793;28;20525;-68
2021/09/01 06:31:13;;;;;;;8.88;3.80;;;17.10;99.90;;;;;;4104665;28;20038;-68
2021/09/01 06:33:14;;;;;;;13.35;4.78;;;17.00;99.90;;;;;;4106399;28;20035;-68
2021/09/01 06:35:15;;;;;;;10.63;4.25;;;17.00;99.90;;;;;;4087080;28;20094;-68
2021/09/01 06:37:16;;;;;;;12.45;4.30;;;17.10;99.90;;;;;;4107653;28;20482;-68
2021/09/01 06:39:17;;;;;;;10.10;4.18;;;17.00;99.90;;;;;;4108222;28;20085;-68
2021/09/01 06:41:17;;;;;;;10.95;4.45;;;17.00;99.90;;;;;;4108258;28;20039;-68
2021/09/01 06:43:18;;;;;;;8.05;3.58;;;17.00;99.90;;;;;;4110356;28;20145;-68
2021/09/01 06:45:18;;;;;;;6.55;3.28;;;17.00;99.90;;;;;;4107865;28;20043;-68
2021/09/01 06:47:19;;;;;;;8.55;3.83;;;17.10;99.90;;;;;;4105119;28;20370;-68
2021/09/01 06:49:19;;;;;;;7.18;3.17;;;17.10;99.90;;;;;;4106355;28;20077;-68
2021/09/01 06:51:20;;;;;;;8.23;3.50;;;17.10;99.90;;;;;;4109397;28;20054;-68
2021/09/01 06:53:21;;;;;;;7.82;3.55;;;17.20;99.90;;;;;;4112951;28;20129;-68
2021/09/01 06:55:22;;;;;;;8.25;3.67;;;17.20;99.90;;;;;;4110419;28;20039;-68
2021/09/01 06:57:22;;;;;;;11.27;4.47;;;17.20;99.90;;;;;;4096315;28;20161;-68
2021/09/01 06:59:23;;;;;;;9.40;3.45;;;17.20;99.90;;;;;;4095109;28;20064;-68
2021/09/01 07:01:23;;;;;;;12.43;3.65;;;17.20;99.90;;;;;;4113652;28;20136;-68
2021/09/01 07:03:24;;;;;;;7.15;3.45;;;17.20;99.90;;;;;;4111834;28;20118;-68
2021/09/01 07:05:31;;;;;;;8.85;3.40;;;17.20;99.90;;;;;;4113314;28;20045;-68
2021/09/01 07:07:32;;;;;;;9.95;3.92;;;17.20;99.90;;;;;;4107351;28;20038;-68
2021/09/01 07:09:32;;;;;;;8.48;3.67;;;17.30;99.90;;;;;;4108347;28;20149;-68
2021/09/01 07:11:33;;;;;;;14.68;3.65;;;17.30;99.90;;;;;;4107850;28;20043;-68
2021/09/01 07:13:33;;;;;;;8.68;3.33;;;17.20;99.90;;;;;;4106699;28;20098;-68
2021/09/01 07:15:34;;;;;;;12.68;4.28;;;17.30;99.90;;;;;;4110244;28;20065;-68
2021/09/01 07:17:36;;;;;;;9.57;4.07;;;17.30;99.90;;;;;;4105359;28;20077;-68
2021/09/01 07:19:37;;;;;;;10.38;4.15;;;17.30;99.90;;;;;;4113130;28;20026;-68
2021/09/01 07:21:38;;;;;;;9.02;4.43;;;17.30;99.90;;;;;;4107523;28;20058;-68
2021/09/01 07:23:39;;;;;;;9.85;4.38;;;17.30;99.90;;;;;;4111861;28;20093;-68
2021/09/01 07:25:39;;;;;;;8.63;3.65;;;17.30;99.90;;;;;;4102956;28;20046;-68
2021/09/01 07:27:40;;;;;;;9.85;3.95;;;17.30;99.90;;;;;;4108724;28;20378;-68
2021/09/01 07:29:40;;;;;;;8.77;4.13;;;17.30;99.90;;;;;;4107389;28;20038;-68
2021/09/01 07:31:41;;;;;;;12.40;4.53;;;17.30;99.90;;;;;;4103747;28;20038;-68
2021/09/01 07:33:42;;;;;;;9.43;4.18;;;17.30;99.90;;;;;;4106175;28;20047;-68
2021/09/01 07:35:42;;;;;;;9.68;4.40;;;17.20;99.90;;;;;;4107004;28;20042;-68
2021/09/01 07:37:44;;;;;;;10.15;3.55;;;17.20;99.90;;;;;;4089919;28;20035;-68
2021/09/01 07:39:45;;;;;;;8.88;3.60;;;17.20;99.90;;;;;;4089018;28;20042;-68
2021/09/01 07:41:46;;;;;;;13.82;4.30;;;17.20;99.90;;;;;;4105908;28;20031;-68
2021/09/01 07:43:46;;;;;;;7.93;4.20;;;17.20;99.90;;;;;;4108127;28;20043;-68
2021/09/01 07:45:47;;;;;;;10.40;3.83;;;17.20;99.90;;;;;;4106706;28;20549;-68
2021/09/01 07:47:52;;;;;;;9.13;3.90;;;17.20;99.90;;;;;;4102439;28;20259;-68
2021/09/01 07:49:53;;;;;;;15.23;4.18;;;17.20;99.90;;;;;;4103332;28;20521;-68
2021/09/01 07:51:54;;;;;;;8.55;3.72;;;17.20;99.90;;;;;;4103554;28;20072;-68
2021/09/01 07:53:55;;;;;;;11.70;4.10;;;17.20;99.90;;;;;;4089134;28;20050;-68
2021/09/01 07:55:56;;;;;;;11.15;3.92;;;17.20;99.90;;;;;;4103775;28;20046;-68
2021/09/01 07:57:56;;;;;;;10.32;3.90;;;17.20;99.90;;;;;;4105496;28;20047;-68
2021/09/01 07:59:57;;;;;;;7.78;3.63;;;17.20;99.90;;;;;;4107269;28;20047;-68
2021/09/01 08:01:57;;;;;;;10.57;3.60;;;17.20;99.90;;;;;;4098068;28;20504;-68
2021/09/01 08:03:58;;;;;;;11.15;3.85;;;17.20;99.90;;;;;;4085942;28;20043;-68
2021/09/01 08:06:00;;;;;;;9.75;3.88;;;17.30;99.90;;;;;;4105265;28;20189;-68
2021/09/01 08:08:01;;;;;;;11.23;4.22;;;17.20;99.90;;;;;;4081025;28;20126;-68
2021/09/01 08:10:03;;;;;;;11.30;4.15;;;17.20;99.90;;;;;;4101082;28;20412;-68
2021/09/01 08:12:04;;;;;;;10.65;3.85;;;17.10;99.90;;;;;;4101777;28;20580;-68
2021/09/01 08:14:05;;;;;;;10.75;3.60;;;17.10;99.90;;;;;;4083182;28;20038;-68
2021/09/01 08:16:07;;;;;;;9.32;3.65;;;17.10;99.90;;;;;;4083038;28;20391;-68
2021/09/01 08:18:08;;;;;;;6.65;3.35;;;17.00;99.90;;;;;;4082184;28;20067;-68
2021/09/01 08:20:09;;;;;;;8.43;3.47;;;17.00;99.90;;;;;;4078491;28;20553;-68
2021/09/01 08:22:12;;;;;;;12.68;4.03;;;17.00;99.90;;;;;;4098553;28;20527;-68
2021/09/01 08:24:12;;;;;;;11.70;4.40;;;17.00;99.90;;;;;;4099181;28;20038;-68
2021/09/01 08:26:13;;;;;;;14.57;4.55;;;17.00;99.90;;;;;;4099954;28;20027;-68
2021/09/01 08:28:14;;;;;;;11.43;3.75;;;17.00;99.90;;;;;;4085374;28;20043;-68
2021/09/01 08:30:15;;;;;;;8.90;3.80;;;17.00;99.90;;;;;;4101866;28;20038;-68
2021/09/01 08:32:16;;;;;;;10.73;3.42;;;17.10;99.90;;;;;;4088317;28;20480;-68
2021/09/01 08:34:17;;;;;;;10.02;3.67;;;17.00;99.90;;;;;;4085598;28;20031;-68
2021/09/01 08:36:17;;;;;;;9.30;3.60;;;17.00;99.90;;;;;;4103298;28;20039;-68
2021/09/01 08:38:18;;;;;;;13.27;4.30;;;17.10;99.90;;;;;;4105269;28;20035;-68
2021/09/01 08:40:18;;;;;;;6.68;3.28;;;17.00;99.90;;;;;;4106473;28;20035;-68
2021/09/01 08:42:22;;;;;;;10.10;3.85;;;17.00;99.90;;;;;;4103793;28;20054;-68
2021/09/01 08:44:23;;;;;;;8.13;3.38;;;17.10;99.90;;;;;;4107309;28;20134;-70
2021/09/01 08:46:23;;;;;;;14.30;4.13;;;17.10;99.90;;;;;;4105112;28;20039;-68
2021/09/01 08:48:24;;;;;;;9.38;4.03;;;17.10;99.90;;;;;;4105109;28;20034;-68
2021/09/01 08:50:28;;;;;;;8.18;3.35;;;17.10;99.90;;;;;;4106844;28;20122;-67
2021/09/01 08:52:28;;;;;;;8.52;3.47;;;17.10;99.90;;;;;;4106592;28;20074;-68
2021/09/01 08:54:29;;;;;;;9.20;4.22;;;17.10;99.90;;;;;;4103456;28;20054;-68
2021/09/01 08:56:30;;;;;;;13.10;3.72;;;17.20;99.90;;;;;;4103846;28;20047;-68
2021/09/01 08:58:31;;;;;;;10.40;3.55;;;17.20;99.90;;;;;;4108683;28;20035;-68
2021/09/01 09:00:32;;;;;;;9.18;3.20;;;17.20;99.90;;;;;;4103722;28;20146;-68
2021/09/01 09:02:33;;;;;;;9.18;3.30;;;17.20;99.90;;;;;;4087610;28;20218;-68
2021/09/01 09:04:38;;;;;;;11.25;3.55;;;17.30;99.90;;;;;;4101585;28;20473;-67
2021/09/01 09:06:50;;;;;;;7.78;3.35;;;17.30;99.90;;;;;;4105904;28;20485;-68
2021/09/01 09:08:50;;;;;;;9.20;3.60;;;17.40;99.90;;;;;;4094539;28;20681;-67
2021/09/01 09:10:51;;;;;;;6.63;3.08;;;17.40;99.90;;;;;;4103550;28;20034;-68
2021/09/01 09:13:09;;;;;;;7.60;3.13;;;17.40;99.90;;;;;;4086073;28;20050;-68
2021/09/01 09:15:14;;;;;;;10.80;4.07;;;17.40;99.90;;;;;;4084600;28;20042;-67
2021/09/01 09:17:21;;;;;;;6.28;3.40;;;17.40;99.90;;;;;;4088487;28;20031;-68
2021/09/01 09:20:06;;;;;;;9.27;2.75;;;17.50;99.90;;;;;;4101946;28;20047;-68
2021/09/01 09:22:07;;;;;;;8.40;3.67;;;17.50;99.90;;;;;;4104057;28;20035;-68
2021/09/01 09:24:19;;;;;;;8.38;3.63;;;17.40;99.90;;;;;;4085082;28;20037;-67
2021/09/01 09:26:26;;;;;;;8.43;3.72;;;17.50;99.90;;;;;;4103610;28;20043;-68
2021/09/01 09:28:26;;;;;;;9.15;3.35;;;17.50;99.90;;;;;;4102632;28;20074;-68
2021/09/01 09:30:31;;;;;;;5.10;2.83;;;17.50;99.90;;;;;;4090660;28;20051;-68
2021/09/01 09:32:32;;;;;;;7.40;2.92;;;17.50;99.90;;;;;;4106157;28;20088;-68
2021/09/01 09:34:40;;;;;;;6.25;2.70;;;17.50;99.90;;;;;;4107681;28;20698;-68
2021/09/01 09:37:08;;;;;;;10.40;2.83;;;17.50;99.90;;;;;;4105614;28;20470;-68
2021/09/01 09:39:09;;;;;;;5.10;2.40;;;17.50;99.90;;;;;;4085107;28;20391;-68
2021/09/01 09:41:28;;;;;;;4.88;2.45;;;17.50;99.90;;;;;;4105656;28;20114;-68
2021/09/01 09:43:30;;;;;;;6.32;2.75;;;17.60;99.90;;;;;;4108778;28;20842;-68
2021/09/01 09:45:30;;;;;;;5.95;2.17;;;17.60;99.90;;;;;;4103748;28;21096;-67
2021/09/01 09:47:51;;;;;;;4.32;2.15;;;17.60;99.90;;;;;;4104467;28;20524;-68
2021/09/01 09:50:07;;;;;;;6.00;2.42;;;17.70;99.90;;;;;;4102323;28;20514;-68
2021/09/01 09:52:15;;;;;;;7.53;2.70;;;17.70;99.90;;;;;;4086395;28;20035;-68
2021/09/01 09:54:27;;;;;;;5.13;2.35;;;17.80;99.90;;;;;;4105964;28;20034;-68
2021/09/01 09:56:29;;;;;;;6.10;2.30;;;17.90;99.90;;;;;;4104182;28;20069;-68
2021/09/01 09:58:33;;;;;;;8.50;2.70;;;17.80;99.90;;;;;;4103913;28;20050;-68
2021/09/01 10:00:34;;;;;;;6.00;2.72;;;17.90;99.90;;;;;;4090756;28;20193;-68
2021/09/01 10:02:35;;;;;;;6.82;2.90;;;17.90;99.90;;;;;;4106241;28;20141;-68
2021/09/01 10:04:37;;;;;;;7.57;2.85;;;17.90;99.90;;;;;;4106539;28;20035;-68
2021/09/01 10:06:38;;;;;;;8.48;3.30;;;17.90;99.90;;;;;;4076072;29;20034;-68
2021/09/01 10:08:39;;;;;;;7.35;3.20;;;17.90;99.90;;;;;;4106086;28;20515;-68
2021/09/01 10:10:39;;;;;;;7.55;3.42;;;17.90;99.90;;;;;;4085774;28;20443;-68
2021/09/01 10:12:45;;;;;;;7.57;3.45;;;18.00;99.90;;;;;;4104746;28;20037;-68
2021/09/01 10:14:46;;;;;;;7.00;3.10;;;18.00;99.90;;;;;;4104365;28;20038;-68
2021/09/01 10:17:07;;;;;;;7.15;3.25;;;18.00;99.90;;;;;;4110662;28;20031;-68
2021/09/01 10:19:20;;;;;;;9.57;3.70;;;18.00;99.90;;;;;;4108606;28;20043;-68
2021/09/01 10:21:25;;;;;;;7.55;3.28;;;18.00;99.90;;;;;;4105327;28;20491;-68
2021/09/01 10:23:38;;;;;;;5.88;3.00;;;18.00;99.90;;;;;;4110582;28;20061;-68
2021/09/01 10:25:50;;;;;;;6.60;3.15;;;18.10;99.90;;;;;;4104854;28;20035;-68
2021/09/01 10:27:50;;;;;;;9.17;3.20;;;18.10;99.90;;;;;;4105675;28;20037;-68
2021/09/01 10:29:55;;;;;;;11.90;3.72;;;18.10;99.90;;;;;;4106664;28;20118;-68
2021/09/01 10:32:15;;;;;;;8.07;3.33;;;18.10;99.90;;;;;;4111204;28;20701;-68
2021/09/01 10:34:21;;;;;;;8.40;3.17;;;18.10;99.90;;;;;;4106284;28;20050;-68